createdAt,value
2022-10-10T00:01:33.104Z,93.10
2022-10-10T00:04:01.737Z,93.10
2022-10-10T00:06:33.003Z,93.20
2022-10-10T00:09:01.821Z,93.40
2022-10-10T00:11:29.613Z,93.50
2022-10-10T00:13:57.114Z,93.60
2022-10-10T00:16:28.689Z,93.80
2022-10-10T00:18:55.883Z,93.90
2022-10-10T00:21:23.082Z,94.00
2022-10-10T00:23:53.018Z,94.20
2022-10-10T00:26:21.649Z,94.50
2022-10-10T00:28:49.070Z,94.90
2022-10-10T00:31:16.479Z,95.10
2022-10-10T00:33:46.919Z,94.90
2022-10-10T00:36:18.736Z,94.70
2022-10-10T00:38:50.845Z,94.60
2022-10-10T00:41:26.883Z,94.40
2022-10-10T00:44:11.989Z,94.40
2022-10-10T00:46:40.044Z,94.10
2022-10-10T00:49:18.807Z,94.00
2022-10-10T00:51:53.834Z,93.90
2022-10-10T00:54:24.335Z,93.80
2022-10-10T00:57:05.576Z,93.80
2022-10-10T00:59:34.955Z,93.80
2022-10-10T01:02:02.178Z,93.60
2022-10-10T01:04:34.894Z,93.60
2022-10-10T01:07:20.187Z,93.50
2022-10-10T01:09:50.578Z,93.40
2022-10-10T01:12:23.235Z,93.30
2022-10-10T01:15:33.764Z,93.20
2022-10-10T01:18:43.065Z,93.20
2022-10-10T01:22:05.668Z,93.00
2022-10-10T01:25:35.166Z,92.90
2022-10-10T01:28:35.791Z,92.80
2022-10-10T01:31:08.484Z,92.70
2022-10-10T01:34:22.384Z,92.70
2022-10-10T01:37:17.667Z,92.70
2022-10-10T01:40:18.003Z,92.70
2022-10-10T01:42:58.315Z,92.60
2022-10-10T01:45:26.794Z,92.60
2022-10-10T01:48:01.621Z,92.60
2022-10-10T01:50:52.110Z,92.60
2022-10-10T01:53:41.982Z,92.40
2022-10-10T01:56:34.524Z,92.70
2022-10-10T01:59:32.018Z,92.40
2022-10-10T02:02:23.208Z,92.40
2022-10-10T02:05:07.252Z,92.30
2022-10-10T02:08:30.896Z,92.40
2022-10-10T02:11:08.348Z,92.40
2022-10-10T02:13:56.295Z,92.20
2022-10-10T02:16:34.526Z,92.30
2022-10-10T02:19:02.446Z,92.20
2022-10-10T02:21:30.948Z,92.20
2022-10-10T02:24:06.595Z,92.20
2022-10-10T02:26:36.232Z,92.20
2022-10-10T02:29:15.935Z,92.10
2022-10-10T02:32:20.719Z,92.10
2022-10-10T02:34:55.491Z,92.00
2022-10-10T02:37:24.328Z,92.00
2022-10-10T02:40:01.532Z,92.00
2022-10-10T02:42:29.731Z,91.90
2022-10-10T02:44:57.835Z,91.80
2022-10-10T02:47:25.280Z,91.80
2022-10-10T02:49:52.262Z,91.80
2022-10-10T02:52:19.214Z,91.90
2022-10-10T02:57:44.704Z,91.80
2022-10-10T03:00:15.442Z,91.80
2022-10-10T03:02:42.976Z,91.80
2022-10-10T03:05:11.719Z,91.80
2022-10-10T03:07:38.838Z,91.90
2022-10-10T03:10:07.344Z,91.90
2022-10-10T03:12:35.794Z,91.90
2022-10-10T03:15:07.922Z,91.80
2022-10-10T03:17:38.109Z,91.90
2022-10-10T03:20:06.973Z,91.80
2022-10-10T03:22:34.219Z,91.90
2022-10-10T03:25:01.051Z,92.00
2022-10-10T03:27:28.242Z,92.10
2022-10-10T03:29:55.115Z,92.10
2022-10-10T03:32:22.108Z,92.20
2022-10-10T03:34:49.045Z,92.20
2022-10-10T03:38:00.123Z,92.30
2022-10-10T03:40:31.839Z,92.50
2022-10-10T03:42:59.752Z,92.40
2022-10-10T03:45:39.467Z,92.50
2022-10-10T03:48:21.747Z,92.70
2022-10-10T03:50:49.774Z,92.80
2022-10-10T03:53:17.008Z,92.90
2022-10-10T03:55:44.037Z,93.10
2022-10-10T03:58:11.564Z,93.00
2022-10-10T04:00:38.968Z,93.10
2022-10-10T04:03:06.658Z,93.20
2022-10-10T04:05:36.070Z,93.10
2022-10-10T04:08:04.341Z,93.30
2022-10-10T04:10:34.505Z,93.30
2022-10-10T04:13:01.414Z,93.10
2022-10-10T04:15:33.060Z,93.20
2022-10-10T04:18:00.542Z,93.30
2022-10-10T04:20:27.735Z,93.20
2022-10-10T04:22:55.076Z,93.30
2022-10-10T04:25:22.994Z,93.40
2022-10-10T04:27:50.592Z,93.30
2022-10-10T04:30:19.405Z,93.40
2022-10-10T04:32:46.395Z,93.30
2022-10-10T04:35:15.785Z,93.30
2022-10-10T04:37:48.833Z,93.20
2022-10-10T04:40:26.826Z,93.20
2022-10-10T04:43:20.258Z,93.30
2022-10-10T04:45:47.612Z,93.30
2022-10-10T04:48:14.661Z,93.40
2022-10-10T04:50:41.872Z,93.40
2022-10-10T04:53:10.167Z,93.50
2022-10-10T04:55:37.299Z,93.60
2022-10-10T04:58:11.924Z,93.60
2022-10-10T05:00:41.578Z,93.70
2022-10-10T05:03:11.389Z,93.80
2022-10-10T05:05:39.686Z,93.80
2022-10-10T05:08:06.528Z,93.70
2022-10-10T05:10:38.763Z,93.90
2022-10-10T05:13:13.212Z,93.80
2022-10-10T05:15:40.934Z,94.00
2022-10-10T05:18:08.458Z,94.00
2022-10-10T05:20:36.794Z,94.00
2022-10-10T05:23:04.370Z,94.00
2022-10-10T05:25:31.331Z,94.00
2022-10-10T05:27:58.152Z,94.10
2022-10-10T05:30:25.073Z,94.20
2022-10-10T05:32:52.568Z,94.10
2022-10-10T05:35:20.003Z,94.20
2022-10-10T05:37:46.813Z,94.20
2022-10-10T05:40:13.955Z,94.20
2022-10-10T05:42:41.210Z,94.20
2022-10-10T05:45:08.878Z,94.30
2022-10-10T05:47:35.758Z,94.30
2022-10-10T05:50:02.560Z,94.30
2022-10-10T05:52:32.370Z,94.40
2022-10-10T05:54:59.216Z,94.40
2022-10-10T05:57:26.022Z,94.40
2022-10-10T05:59:52.970Z,94.40
2022-10-10T06:02:19.839Z,94.50
2022-10-10T06:04:46.698Z,94.50
2022-10-10T06:07:13.653Z,94.50
2022-10-10T06:09:40.674Z,94.50
2022-10-10T06:12:07.537Z,94.50
2022-10-10T06:14:34.466Z,94.50
2022-10-10T06:17:01.307Z,94.60
2022-10-10T06:19:28.254Z,94.60
2022-10-10T06:21:55.211Z,94.70
2022-10-10T06:24:22.131Z,94.70
2022-10-10T06:26:48.979Z,94.70
2022-10-10T06:29:15.825Z,94.60
2022-10-10T06:31:42.692Z,94.60
2022-10-10T06:34:09.575Z,94.70
2022-10-10T06:36:36.453Z,94.60
2022-10-10T06:39:03.544Z,94.60
2022-10-10T06:41:30.457Z,94.60
2022-10-10T06:43:57.426Z,94.50
2022-10-10T06:46:24.295Z,94.50
2022-10-10T06:48:51.116Z,94.40
2022-10-10T06:51:18.739Z,94.40
2022-10-10T06:53:46.592Z,94.30
2022-10-10T06:56:26.384Z,94.00
2022-10-10T06:58:55.311Z,93.80
2022-10-10T07:01:24.734Z,93.40
2022-10-10T07:03:51.977Z,93.00
2022-10-10T07:06:18.806Z,92.80
2022-10-10T07:08:45.707Z,92.50
2022-10-10T07:11:12.959Z,92.30
2022-10-10T07:13:40.389Z,92.10
2022-10-10T07:16:07.842Z,92.20
2022-10-10T07:18:36.764Z,92.10
2022-10-10T07:21:05.185Z,92.10
2022-10-10T07:23:32.858Z,91.80
2022-10-10T07:26:04.069Z,91.80
2022-10-10T07:28:32.316Z,91.40
2022-10-10T07:31:03.999Z,91.10
2022-10-10T07:33:44.914Z,91.30
2022-10-10T07:36:15.440Z,91.30
2022-10-10T07:38:42.298Z,91.20
2022-10-10T07:41:12.994Z,91.10
2022-10-10T07:43:40.142Z,91.10
2022-10-10T07:46:15.091Z,91.10
2022-10-10T07:48:41.890Z,91.10
2022-10-10T07:51:09.964Z,91.10
2022-10-10T07:53:36.845Z,91.40
2022-10-10T07:56:09.151Z,91.10
2022-10-10T07:58:36.466Z,91.20
2022-10-10T08:01:10.930Z,91.20
2022-10-10T08:03:38.829Z,91.20
2022-10-10T08:06:09.577Z,91.20
2022-10-10T08:08:43.776Z,91.00
2022-10-10T08:11:15.877Z,90.90
2022-10-10T08:13:42.786Z,90.60
2022-10-10T08:16:09.642Z,90.40
2022-10-10T08:18:36.862Z,90.10
2022-10-10T08:21:10.472Z,90.20
2022-10-10T08:23:37.870Z,89.80
2022-10-10T08:26:09.067Z,90.00
2022-10-10T08:28:38.175Z,86.90
2022-10-10T08:31:14.037Z,86.50
2022-10-10T08:33:43.539Z,85.70
2022-10-10T08:36:15.814Z,84.20
2022-10-10T08:38:43.466Z,85.00
2022-10-10T08:41:40.592Z,85.10
2022-10-10T08:44:36.766Z,84.50
2022-10-10T08:47:09.758Z,84.60
2022-10-10T08:49:47.675Z,83.90
2022-10-10T08:52:50.586Z,82.70
2022-10-10T08:55:26.276Z,82.90
2022-10-10T08:58:08.331Z,83.90
2022-10-10T09:00:44.871Z,82.00
2022-10-10T09:03:37.062Z,81.50
2022-10-10T09:06:15.777Z,82.10
2022-10-10T09:09:28.269Z,80.50
2022-10-10T09:12:23.886Z,80.30
2022-10-10T09:15:02.830Z,79.60
2022-10-10T09:17:54.860Z,78.60
2022-10-10T09:20:48.471Z,77.70
2022-10-10T09:23:49.957Z,77.80
2022-10-10T09:26:25.264Z,77.60
2022-10-10T09:29:42.128Z,79.50
2022-10-10T09:32:18.061Z,78.10
2022-10-10T09:34:52.363Z,77.60
2022-10-10T09:37:45.920Z,78.90
2022-10-10T09:40:31.345Z,79.60
2022-10-10T09:43:10.746Z,79.70
2022-10-10T09:45:48.116Z,80.20
2022-10-10T09:48:15.104Z,79.70
2022-10-10T09:50:43.977Z,79.80
2022-10-10T09:53:17.089Z,81.10
2022-10-10T09:55:47.109Z,80.10
2022-10-10T09:58:42.047Z,78.70
2022-10-10T10:01:25.451Z,78.00
2022-10-10T10:04:28.664Z,75.70
2022-10-10T10:07:25.305Z,74.90
2022-10-10T10:09:59.522Z,75.70
2022-10-10T10:12:39.335Z,74.30
2022-10-10T10:15:22.698Z,73.90
2022-10-10T10:18:21.768Z,73.80
2022-10-10T10:21:10.744Z,72.60
2022-10-10T10:24:03.340Z,71.10
2022-10-10T10:26:48.474Z,70.90
2022-10-10T10:29:33.110Z,70.60
2022-10-10T10:32:03.335Z,69.20
2022-10-10T10:35:01.713Z,69.30
2022-10-10T10:38:00.506Z,69.40
2022-10-10T10:40:40.259Z,70.60
2022-10-10T10:43:19.511Z,71.00
2022-10-10T10:46:03.589Z,70.90
2022-10-10T10:48:55.080Z,70.40
2022-10-10T10:51:39.773Z,69.90
2022-10-10T10:54:31.960Z,68.10
2022-10-10T10:57:11.297Z,68.60
2022-10-10T11:00:25.826Z,69.30
2022-10-10T11:05:16.717Z,70.50
2022-10-10T11:06:15.438Z,70.70
2022-10-10T11:09:05.694Z,71.40
2022-10-10T11:11:55.572Z,71.00
2022-10-10T11:15:00.949Z,72.30
2022-10-10T11:17:44.492Z,72.60
2022-10-10T11:20:38.943Z,72.90
2022-10-10T11:23:17.717Z,73.00
2022-10-10T11:26:00.350Z,73.30
2022-10-10T11:28:42.495Z,73.20
2022-10-10T11:31:18.562Z,73.80
2022-10-10T11:33:59.117Z,74.00
2022-10-10T11:36:31.590Z,74.50
2022-10-10T11:39:15.630Z,74.70
2022-10-10T11:41:55.674Z,75.50
2022-10-10T11:44:35.354Z,76.10
2022-10-10T11:47:22.556Z,77.20
2022-10-10T11:50:15.287Z,76.50
2022-10-10T11:53:04.995Z,77.30
2022-10-10T11:56:02.030Z,77.50
2022-10-10T11:58:44.143Z,77.00
2022-10-10T12:01:31.048Z,77.50
2022-10-10T12:03:58.873Z,77.60
2022-10-10T12:06:53.088Z,77.70
2022-10-10T12:09:39.556Z,77.30
2022-10-10T12:12:22.670Z,77.20
2022-10-10T12:14:55.734Z,77.40
2022-10-10T12:17:32.366Z,76.00
2022-10-10T12:20:16.872Z,75.30
2022-10-10T12:22:44.141Z,75.80
2022-10-10T12:25:10.920Z,76.20
2022-10-10T12:27:47.118Z,75.70
2022-10-10T12:30:25.109Z,75.90
2022-10-10T12:32:55.727Z,75.80
2022-10-10T12:35:41.717Z,75.00
2022-10-10T12:39:42.871Z,75.90
2022-10-10T12:42:48.446Z,76.20
2022-10-10T12:45:30.416Z,76.20
2022-10-10T12:48:19.342Z,75.40
2022-10-10T12:50:58.232Z,73.40
2022-10-10T12:53:32.803Z,73.60
2022-10-10T12:56:02.973Z,72.70
2022-10-10T12:58:38.355Z,72.80
2022-10-10T13:01:26.440Z,70.80
2022-10-10T13:03:55.801Z,69.60
2022-10-10T13:06:42.953Z,69.40
2022-10-10T13:09:22.276Z,68.70
2022-10-10T13:12:02.246Z,69.20
2022-10-10T13:14:45.906Z,68.80
2022-10-10T13:17:41.625Z,68.10
2022-10-10T13:20:28.030Z,67.00
2022-10-10T13:22:56.886Z,68.30
2022-10-10T13:25:24.353Z,67.60
2022-10-10T13:27:51.444Z,66.60
2022-10-10T13:30:21.948Z,66.50
2022-10-10T13:32:52.752Z,64.80
2022-10-10T13:35:30.290Z,63.50
2022-10-10T13:38:00.692Z,62.60
2022-10-10T13:40:28.056Z,64.30
2022-10-10T13:42:56.269Z,63.10
2022-10-10T13:45:30.232Z,64.00
2022-10-10T13:48:12.530Z,65.20
2022-10-10T13:50:47.059Z,66.40
2022-10-10T13:53:29.129Z,67.20
2022-10-10T13:56:27.941Z,68.80
2022-10-10T13:59:11.814Z,70.40
2022-10-10T14:01:48.448Z,71.00
2022-10-10T14:04:38.188Z,71.40
2022-10-10T14:07:30.629Z,72.60
2022-10-10T14:10:08.860Z,71.80
2022-10-10T14:13:02.118Z,72.80
2022-10-10T14:15:41.028Z,73.80
2022-10-10T14:18:20.361Z,73.10
2022-10-10T14:20:49.033Z,74.30
2022-10-10T14:23:16.431Z,74.70
2022-10-10T14:25:46.700Z,74.50
2022-10-10T14:28:34.392Z,75.20
2022-10-10T14:31:01.629Z,75.10
2022-10-10T14:33:28.698Z,74.90
2022-10-10T14:35:58.234Z,75.30
2022-10-10T14:38:26.989Z,75.70
2022-10-10T14:40:55.561Z,75.50
2022-10-10T14:43:26.146Z,75.20
2022-10-10T14:45:54.482Z,75.10
2022-10-10T14:48:21.869Z,76.10
2022-10-10T14:50:51.197Z,76.30
2022-10-10T14:53:18.753Z,75.90
2022-10-10T14:55:46.411Z,76.20
2022-10-10T14:58:22.764Z,75.90
2022-10-10T15:00:53.196Z,76.50
2022-10-10T15:03:21.059Z,77.10
2022-10-10T15:05:48.596Z,78.10
2022-10-10T15:08:19.004Z,78.20
2022-10-10T15:10:49.814Z,78.40
2022-10-10T15:13:41.923Z,78.90
2022-10-10T15:16:08.760Z,79.30
2022-10-10T15:21:22.946Z,80.10
2022-10-10T15:23:49.955Z,80.60
2022-10-10T15:26:16.932Z,80.90
2022-10-10T15:28:43.807Z,81.20
2022-10-10T15:31:10.726Z,81.20
2022-10-10T15:33:37.533Z,81.30
2022-10-10T15:36:10.432Z,81.20
2022-10-10T15:38:38.410Z,81.60
2022-10-10T15:41:09.346Z,82.10
2022-10-10T15:43:52.003Z,82.50
2022-10-10T15:46:20.872Z,83.20
2022-10-10T15:48:48.212Z,83.70
2022-10-10T15:51:16.189Z,84.40
2022-10-10T15:53:43.952Z,85.60
2022-10-10T15:56:16.354Z,87.60
2022-10-10T15:58:43.870Z,88.40
2022-10-10T16:01:20.417Z,89.40
2022-10-10T16:03:49.472Z,89.90
2022-10-10T16:06:21.362Z,90.10
2022-10-10T16:08:55.748Z,90.60
2022-10-10T16:11:27.593Z,91.50
2022-10-10T16:13:58.359Z,91.50
2022-10-10T16:16:32.130Z,91.80
2022-10-10T16:18:59.973Z,92.20
2022-10-10T16:21:32.038Z,92.40
2022-10-10T16:24:01.703Z,92.60
2022-10-10T16:26:42.950Z,92.90
2022-10-10T16:29:15.551Z,93.20
2022-10-10T16:31:45.503Z,93.30
2022-10-10T16:34:16.092Z,93.40
2022-10-10T16:36:48.874Z,93.40
2022-10-10T16:39:19.036Z,93.40
2022-10-10T16:42:00.216Z,93.50
2022-10-10T16:44:27.634Z,93.80
2022-10-10T16:46:54.496Z,94.20
2022-10-10T16:49:23.581Z,94.40
2022-10-10T16:51:50.907Z,94.80
2022-10-10T16:54:18.289Z,95.10
2022-10-10T16:56:46.777Z,95.40
2022-10-10T16:59:14.177Z,95.70
2022-10-10T17:01:41.397Z,95.90
2022-10-10T17:04:08.785Z,95.90
2022-10-10T17:06:38.631Z,95.80
2022-10-10T17:09:11.557Z,95.80
2022-10-10T17:11:38.847Z,95.90
2022-10-10T17:14:12.814Z,95.90
2022-10-10T17:17:32.031Z,95.60
2022-10-10T17:23:23.575Z,95.20
2022-10-10T17:26:03.946Z,95.10
2022-10-10T17:31:56.458Z,94.80
2022-10-10T17:38:52.237Z,94.70
2022-10-10T17:41:48.128Z,94.50
2022-10-10T17:48:09.651Z,94.50
2022-10-10T17:50:37.354Z,94.40
2022-10-10T17:54:08.471Z,94.30
2022-10-10T17:56:50.892Z,94.30
2022-10-10T17:59:24.275Z,94.50
2022-10-10T18:01:58.789Z,94.50
2022-10-10T18:09:32.658Z,94.30
2022-10-10T18:12:15.483Z,94.30
2022-10-10T18:16:10.978Z,94.20
2022-10-10T18:19:14.271Z,94.10
2022-10-10T18:23:01.053Z,94.00
2022-10-10T18:26:46.653Z,93.90
2022-10-10T18:29:21.371Z,94.00
2022-10-10T18:32:09.851Z,93.80
2022-10-10T18:34:54.949Z,93.70
2022-10-10T18:37:27.732Z,93.70
2022-10-10T18:39:54.905Z,93.60
2022-10-10T18:42:22.573Z,93.60
2022-10-10T18:44:53.788Z,93.60
2022-10-10T18:47:24.031Z,93.60
2022-10-10T18:49:54.648Z,93.60
2022-10-10T18:52:23.320Z,93.80
2022-10-10T18:54:51.177Z,93.80
2022-10-10T18:57:18.496Z,94.00
2022-10-10T18:59:45.621Z,94.00
2022-10-10T19:02:12.597Z,94.20
2022-10-10T19:12:20.222Z,94.40
2022-10-10T19:14:47.194Z,94.40
2022-10-10T19:32:06.413Z,94.30
2022-10-10T19:35:40.401Z,94.40
2022-10-10T19:42:48.861Z,94.70
2022-10-10T19:50:39.360Z,94.80
2022-10-10T19:58:28.116Z,94.90
2022-10-10T20:01:44.251Z,94.90
2022-10-10T20:04:41.398Z,95.00
2022-10-10T20:08:13.964Z,95.10
2022-10-10T20:10:43.784Z,95.20
2022-10-10T20:13:15.088Z,95.30
2022-10-10T20:15:46.457Z,95.30
2022-10-10T20:18:17.017Z,95.50
2022-10-10T20:20:51.879Z,95.50
2022-10-10T20:23:24.722Z,95.60
2022-10-10T20:25:55.411Z,95.60
2022-10-10T20:28:23.324Z,95.60
2022-10-10T20:30:52.114Z,95.60
2022-10-10T20:33:21.664Z,95.70
2022-10-10T20:35:52.411Z,95.90
2022-10-10T20:38:23.763Z,95.90
2022-10-10T20:40:51.222Z,96.00
2022-10-10T20:43:19.084Z,96.10
2022-10-10T20:45:46.183Z,96.00
2022-10-10T20:48:13.510Z,96.00
2022-10-10T20:50:41.192Z,96.00
2022-10-10T20:53:10.679Z,96.00
2022-10-10T20:55:37.924Z,96.10
2022-10-10T20:58:05.776Z,96.10
2022-10-10T21:00:36.794Z,96.10
2022-10-10T21:03:04.881Z,96.00
2022-10-10T21:05:34.662Z,95.90
2022-10-10T21:08:07.636Z,96.00
2022-10-10T21:10:39.776Z,96.10
2022-10-10T21:13:10.623Z,96.20
2022-10-10T21:15:45.330Z,96.10
2022-10-10T21:18:13.094Z,96.20
2022-10-10T21:20:48.873Z,96.20
2022-10-10T21:23:17.811Z,96.20
2022-10-10T21:25:45.891Z,96.20
2022-10-10T21:28:13.245Z,96.30
2022-10-10T21:30:50.550Z,96.20
2022-10-10T21:33:23.270Z,96.20
2022-10-10T21:35:59.312Z,96.30
2022-10-10T21:38:30.948Z,96.20
2022-10-10T21:41:10.165Z,96.10
2022-10-10T21:43:41.712Z,96.20
2022-10-10T21:46:16.537Z,96.30
2022-10-10T21:48:44.981Z,96.30
2022-10-10T21:51:13.248Z,96.20
2022-10-10T21:53:40.943Z,96.40
2022-10-10T21:56:10.713Z,96.30
2022-10-10T21:58:48.627Z,96.20
2022-10-10T22:01:23.551Z,96.30
2022-10-10T22:03:53.676Z,96.30
2022-10-10T22:06:24.601Z,96.40
2022-10-10T22:08:56.455Z,96.30
2022-10-10T22:11:27.345Z,96.40
2022-10-10T22:13:56.363Z,96.40
2022-10-10T22:16:24.362Z,96.50
2022-10-10T22:18:57.858Z,96.50
2022-10-10T22:21:30.637Z,96.50
2022-10-10T22:24:02.013Z,96.50
2022-10-10T22:26:31.109Z,96.60
2022-10-10T22:28:59.000Z,96.60
2022-10-10T22:31:32.143Z,96.60
2022-10-10T22:34:30.853Z,96.60
2022-10-10T22:37:16.158Z,96.50
2022-10-10T22:40:00.557Z,96.50
2022-10-10T22:42:31.723Z,96.60
2022-10-10T22:44:59.511Z,96.60
2022-10-10T22:47:33.234Z,96.60
2022-10-10T22:50:01.811Z,96.60
2022-10-10T22:52:33.851Z,96.50
2022-10-10T22:55:01.706Z,96.50
2022-10-10T22:57:29.158Z,96.40
2022-10-10T22:59:56.815Z,96.40
2022-10-10T23:02:24.184Z,96.40
2022-10-10T23:05:10.791Z,96.40
2022-10-10T23:07:51.361Z,96.30
2022-10-10T23:10:54.045Z,96.30
2022-10-10T23:13:29.531Z,96.30
2022-10-10T23:16:00.658Z,96.30
2022-10-10T23:18:44.125Z,96.60
2022-10-10T23:21:22.538Z,96.40
2022-10-10T23:23:55.147Z,96.40
2022-10-10T23:26:25.344Z,96.40
2022-10-10T23:32:19.869Z,96.40
2022-10-10T23:35:33.998Z,96.40
2022-10-10T23:38:12.708Z,96.40
2022-10-10T23:41:18.613Z,96.40
2022-10-10T23:43:54.193Z,96.40
2022-10-10T23:46:52.545Z,96.50
2022-10-10T23:49:30.480Z,96.30
2022-10-10T23:52:15.477Z,96.30
2022-10-10T23:55:10.334Z,96.30
